createdAt,value
2018-08-19T00:00:29.396Z,0
2018-08-19T00:01:10.199Z,0
2018-08-19T00:01:50.905Z,0
2018-08-19T00:02:31.741Z,0
2018-08-19T00:03:12.594Z,0
2018-08-19T00:03:53.328Z,0
2018-08-19T00:04:34.084Z,0
2018-08-19T00:05:14.811Z,0
2018-08-19T00:05:55.611Z,0
2018-08-19T00:06:36.423Z,0
2018-08-19T00:07:17.472Z,0
2018-08-19T00:07:58.290Z,0
2018-08-19T00:08:39.101Z,0
2018-08-19T00:09:19.911Z,0
2018-08-19T00:10:00.674Z,0
2018-08-19T00:10:41.396Z,0
2018-08-19T00:11:22.144Z,0
2018-08-19T00:12:02.927Z,0
2018-08-19T00:12:43.781Z,0
2018-08-19T00:13:24.669Z,0
2018-08-19T00:14:05.480Z,0
2018-08-19T00:14:46.199Z,0
2018-08-19T00:15:26.987Z,0
2018-08-19T00:16:07.844Z,0
2018-08-19T00:16:48.599Z,0
2018-08-19T00:17:29.341Z,0
2018-08-19T00:18:10.108Z,0
2018-08-19T00:18:50.888Z,0
2018-08-19T00:19:31.770Z,0
2018-08-19T00:20:12.602Z,0
2018-08-19T00:20:53.350Z,0
2018-08-19T00:21:34.079Z,0
2018-08-19T00:22:14.808Z,0
2018-08-19T00:22:55.624Z,0
2018-08-19T00:23:36.438Z,0
2018-08-19T00:24:17.200Z,0
2018-08-19T00:24:58.005Z,0
2018-08-19T00:25:38.794Z,0
2018-08-19T00:26:19.628Z,0
2018-08-19T00:27:00.425Z,0
2018-08-19T00:27:41.183Z,0
2018-08-19T00:28:21.958Z,0
2018-08-19T00:29:02.699Z,0
2018-08-19T00:29:43.590Z,0
2018-08-19T00:30:24.466Z,0
2018-08-19T00:31:05.309Z,0
2018-08-19T00:31:46.076Z,0
2018-08-19T00:32:26.852Z,0
2018-08-19T00:33:07.626Z,0
2018-08-19T00:33:48.403Z,0
2018-08-19T00:34:29.124Z,0
2018-08-19T00:35:09.857Z,0
2018-08-19T00:35:50.742Z,0
2018-08-19T00:36:31.513Z,0
2018-08-19T00:37:12.271Z,0
2018-08-19T00:37:53.088Z,0
2018-08-19T00:38:33.898Z,0
2018-08-19T00:39:14.731Z,0
2018-08-19T00:39:55.532Z,0
2018-08-19T00:40:36.267Z,0
2018-08-19T00:41:17.091Z,0
2018-08-19T00:41:57.858Z,0
2018-08-19T00:42:38.607Z,0
2018-08-19T00:43:19.323Z,0
2018-08-19T00:44:00.055Z,0
2018-08-19T00:44:40.918Z,0
2018-08-19T00:45:21.777Z,0
2018-08-19T00:46:02.597Z,0
2018-08-19T00:46:43.335Z,0
2018-08-19T00:47:24.044Z,0
2018-08-19T00:48:04.773Z,0
2018-08-19T00:48:45.583Z,0
2018-08-19T00:49:26.377Z,0
2018-08-19T00:50:07.117Z,0
2018-08-19T00:50:47.825Z,0
2018-08-19T00:51:28.673Z,0
2018-08-19T00:52:09.535Z,0
2018-08-19T00:52:50.341Z,0
2018-08-19T00:53:31.080Z,0
2018-08-19T00:54:11.822Z,0
2018-08-19T00:54:52.586Z,0
2018-08-19T00:55:33.416Z,0
2018-08-19T00:56:14.287Z,0
2018-08-19T00:56:55.117Z,0
2018-08-19T00:57:35.904Z,0
2018-08-19T00:58:16.642Z,0
2018-08-19T00:58:57.459Z,0
2018-08-19T00:59:38.323Z,0
2018-08-19T01:00:19.064Z,0
2018-08-19T01:00:59.838Z,0
2018-08-19T01:01:40.569Z,0
2018-08-19T01:02:21.454Z,0
2018-08-19T01:03:02.257Z,0
2018-08-19T01:03:43.059Z,0
2018-08-19T01:04:23.833Z,0
2018-08-19T01:05:04.542Z,0
2018-08-19T01:05:45.282Z,0
2018-08-19T01:06:26.118Z,0
2018-08-19T01:07:06.919Z,0
2018-08-19T01:07:47.632Z,0
2018-08-19T01:08:28.471Z,0
2018-08-19T01:09:09.281Z,0
2018-08-19T01:09:50.062Z,0
2018-08-19T01:10:30.862Z,0
2018-08-19T01:11:11.604Z,0
2018-08-19T01:11:52.422Z,0
2018-08-19T01:12:33.209Z,0
2018-08-19T01:13:13.918Z,0
2018-08-19T01:13:54.698Z,0
2018-08-19T01:14:35.449Z,0
2018-08-19T01:15:16.258Z,0
2018-08-19T01:15:56.999Z,0
2018-08-19T01:16:37.748Z,0
2018-08-19T01:17:18.579Z,0
2018-08-19T01:17:59.378Z,0
2018-08-19T01:18:40.225Z,0
2018-08-19T01:19:20.990Z,0
2018-08-19T01:20:01.767Z,0
2018-08-19T01:20:42.534Z,0
2018-08-19T01:21:23.279Z,0
2018-08-19T01:22:04.098Z,0
2018-08-19T01:22:44.910Z,0
2018-08-19T01:23:25.690Z,0
2018-08-19T01:24:06.434Z,0
2018-08-19T01:24:47.233Z,0
2018-08-19T01:25:28.052Z,0
2018-08-19T01:26:08.793Z,0
2018-08-19T01:26:49.599Z,0
2018-08-19T01:27:30.303Z,0
2018-08-19T01:28:11.135Z,0
2018-08-19T01:28:51.915Z,0
2018-08-19T01:29:32.665Z,0
2018-08-19T01:30:13.416Z,0
2018-08-19T01:30:54.226Z,0
2018-08-19T01:31:35.056Z,0
2018-08-19T01:32:15.865Z,0
2018-08-19T01:32:56.612Z,0
2018-08-19T01:33:37.552Z,4
2018-08-19T01:34:18.365Z,4
2018-08-19T01:34:59.147Z,4
2018-08-19T01:35:39.877Z,4
2018-08-19T01:36:20.650Z,4
2018-08-19T01:37:01.493Z,4
2018-08-19T01:37:42.351Z,4
2018-08-19T01:38:23.217Z,4
2018-08-19T01:39:04.064Z,4
2018-08-19T01:39:44.780Z,4
2018-08-19T01:40:25.540Z,4
2018-08-19T01:41:06.338Z,4
2018-08-19T01:41:47.152Z,4
2018-08-19T01:42:27.911Z,4
2018-08-19T01:43:08.669Z,4
2018-08-19T01:43:49.489Z,4
2018-08-19T01:44:30.337Z,4
2018-08-19T01:45:11.135Z,4
2018-08-19T01:45:51.887Z,0
2018-08-19T01:46:32.686Z,0
2018-08-19T01:47:14.015Z,0
2018-08-19T01:47:54.758Z,0
2018-08-19T01:48:35.493Z,0
2018-08-19T01:49:16.429Z,0
2018-08-19T01:49:57.228Z,0
2018-08-19T01:50:38.045Z,0
2018-08-19T01:51:18.767Z,0
2018-08-19T01:51:59.552Z,0
2018-08-19T01:52:40.889Z,0
2018-08-19T01:53:21.799Z,0
2018-08-19T01:54:02.539Z,0
2018-08-19T01:54:43.304Z,0
2018-08-19T01:55:24.089Z,0
2018-08-19T01:56:04.864Z,0
2018-08-19T01:56:45.703Z,0
2018-08-19T01:57:26.566Z,0
2018-08-19T01:58:07.417Z,0
2018-08-19T01:58:48.163Z,0
2018-08-19T01:59:28.971Z,0
2018-08-19T02:00:09.803Z,0
2018-08-19T02:00:50.553Z,0
2018-08-19T02:01:31.324Z,0
2018-08-19T02:02:12.136Z,0
2018-08-19T02:02:52.928Z,0
2018-08-19T02:03:33.785Z,0
2018-08-19T02:04:14.657Z,0
2018-08-19T02:04:55.481Z,0
2018-08-19T02:05:36.187Z,0
2018-08-19T02:06:16.946Z,0
2018-08-19T02:06:57.659Z,0
2018-08-19T02:07:38.477Z,0
2018-08-19T02:08:19.309Z,0
2018-08-19T02:09:00.052Z,0
2018-08-19T02:09:40.906Z,0
2018-08-19T02:10:21.716Z,0
2018-08-19T02:11:02.553Z,0
2018-08-19T02:11:43.339Z,0
2018-08-19T02:12:24.097Z,0
2018-08-19T02:13:04.909Z,0
2018-08-19T02:13:45.736Z,0
2018-08-19T02:14:26.573Z,0
2018-08-19T02:15:07.430Z,0
2018-08-19T02:15:48.251Z,0
2018-08-19T02:16:29.025Z,0
2018-08-19T02:17:09.843Z,0
2018-08-19T02:17:50.682Z,0
2018-08-19T02:18:31.417Z,0
2018-08-19T02:19:12.109Z,0
2018-08-19T02:19:52.861Z,0
2018-08-19T02:20:33.751Z,0
2018-08-19T02:21:14.499Z,0
2018-08-19T02:21:55.266Z,0
2018-08-19T02:22:36.062Z,0
2018-08-19T02:23:16.892Z,0
2018-08-19T02:23:57.699Z,0
2018-08-19T02:24:38.443Z,0
2018-08-19T02:25:19.162Z,0
2018-08-19T02:26:00.047Z,0
2018-08-19T02:26:40.865Z,0
2018-08-19T02:27:21.580Z,0
2018-08-19T02:28:02.311Z,0
2018-08-19T02:28:43.083Z,0
2018-08-19T02:29:23.943Z,0
2018-08-19T02:30:04.701Z,0
2018-08-19T02:30:45.531Z,0
2018-08-19T02:31:26.270Z,0
2018-08-19T02:32:06.989Z,0
2018-08-19T02:32:47.749Z,0
2018-08-19T02:33:28.552Z,0
2018-08-19T02:34:09.376Z,0
2018-08-19T02:34:50.100Z,0
2018-08-19T02:35:30.865Z,0
2018-08-19T02:36:11.673Z,0
2018-08-19T02:36:52.482Z,0
2018-08-19T02:37:33.260Z,0
2018-08-19T02:38:14.041Z,0
2018-08-19T02:38:54.812Z,0
2018-08-19T02:39:35.545Z,0
2018-08-19T02:40:16.364Z,0
2018-08-19T02:40:57.179Z,0
2018-08-19T02:41:37.965Z,0
2018-08-19T02:42:18.690Z,0
2018-08-19T02:42:59.478Z,0
2018-08-19T02:43:40.297Z,0
2018-08-19T02:44:21.030Z,0
2018-08-19T02:45:01.742Z,0
2018-08-19T02:45:42.523Z,0
2018-08-19T02:46:23.429Z,0
2018-08-19T02:47:04.211Z,0
2018-08-19T02:47:45.050Z,0
2018-08-19T02:48:25.859Z,0
2018-08-19T02:49:06.573Z,0
2018-08-19T02:49:47.328Z,0
2018-08-19T02:50:28.057Z,0
2018-08-19T02:51:08.906Z,0
2018-08-19T02:51:49.657Z,0
2018-08-19T02:52:30.433Z,0
2018-08-19T02:53:11.248Z,0
2018-08-19T02:53:52.087Z,0
2018-08-19T02:54:32.894Z,0
2018-08-19T02:55:13.640Z,0
2018-08-19T02:55:54.451Z,0
2018-08-19T02:56:35.281Z,0
2018-08-19T02:57:15.996Z,0
2018-08-19T02:57:56.757Z,0
2018-08-19T02:58:37.510Z,0
2018-08-19T02:59:18.271Z,0
2018-08-19T02:59:59.081Z,0
2018-08-19T03:00:39.861Z,0
2018-08-19T03:01:20.608Z,0
2018-08-19T03:02:01.429Z,0
2018-08-19T03:02:42.222Z,0
2018-08-19T03:05:19.298Z,0
2018-08-19T03:06:00.051Z,0
2018-08-19T03:06:40.783Z,0
2018-08-19T03:07:21.640Z,0
2018-08-19T03:08:02.429Z,0
2018-08-19T03:08:43.244Z,0
2018-08-19T03:09:23.981Z,0
2018-08-19T03:10:04.786Z,0
2018-08-19T03:10:45.693Z,0
2018-08-19T03:11:26.462Z,0
2018-08-19T03:12:07.193Z,0
2018-08-19T03:12:47.939Z,0
2018-08-19T03:13:28.809Z,0
2018-08-19T03:14:09.590Z,0
2018-08-19T03:14:50.336Z,0
2018-08-19T03:15:31.123Z,0
2018-08-19T03:16:11.916Z,0
2018-08-19T03:16:52.700Z,0
2018-08-19T03:17:33.536Z,0
2018-08-19T03:18:14.307Z,0
2018-08-19T03:18:55.172Z,0
2018-08-19T03:19:35.976Z,0
2018-08-19T03:20:16.725Z,0
2018-08-19T03:20:57.453Z,0
2018-08-19T03:21:38.226Z,0
2018-08-19T03:22:19.063Z,0
2018-08-19T03:22:59.947Z,0
2018-08-19T03:23:40.807Z,0
2018-08-19T03:24:21.537Z,0
2018-08-19T06:39:16.609Z,1744
2018-08-19T06:39:57.527Z,1760
2018-08-19T06:40:38.292Z,1780
2018-08-19T06:41:19.016Z,1804
2018-08-19T06:41:59.754Z,1808
2018-08-19T06:42:40.579Z,1832
2018-08-19T06:43:21.447Z,1852
2018-08-19T06:44:02.175Z,1876
2018-08-19T06:44:42.957Z,1892
2018-08-19T06:45:23.861Z,1908
2018-08-19T06:46:04.720Z,1936
2018-08-19T06:46:45.542Z,1956
2018-08-19T06:47:26.307Z,1968
2018-08-19T06:48:07.128Z,1996
2018-08-19T06:48:47.937Z,2016
2018-08-19T06:49:28.692Z,2036
2018-08-19T06:50:09.414Z,2056
2018-08-19T06:50:50.116Z,2084
2018-08-19T06:51:30.934Z,2104
2018-08-19T06:52:11.754Z,2136
2018-08-19T06:52:52.580Z,2184
2018-08-19T06:53:33.367Z,2240
2018-08-19T06:54:14.142Z,2228
2018-08-19T06:54:54.921Z,2232
2018-08-19T06:55:35.711Z,2232
2018-08-19T06:56:16.568Z,2220
2018-08-19T06:56:57.291Z,2204
2018-08-19T06:57:38.029Z,2220
2018-08-19T06:58:18.915Z,2252
2018-08-19T06:58:59.722Z,2308
2018-08-19T06:59:40.558Z,2324
2018-08-19T07:00:21.302Z,2292
2018-08-19T07:01:02.154Z,2296
2018-08-19T07:01:42.924Z,2364
2018-08-19T07:02:23.697Z,2528
2018-08-19T07:03:04.426Z,2812
2018-08-19T07:03:45.237Z,3752
2018-08-19T07:04:25.974Z,9680
2018-08-19T07:05:06.829Z,18720
2018-08-19T07:05:47.571Z,28448
2018-08-19T07:06:28.432Z,36512
2018-08-19T07:07:09.286Z,40896
2018-08-19T07:07:50.095Z,41376
2018-08-19T07:08:31.003Z,41984
2018-08-19T07:09:11.718Z,41952
2018-08-19T07:09:52.453Z,42304
2018-08-19T07:10:33.211Z,42720
2018-08-19T07:11:14.046Z,43008
2018-08-19T07:11:54.859Z,42752
2018-08-19T07:12:35.647Z,42656
2018-08-19T07:13:16.395Z,43040
2018-08-19T07:13:57.261Z,44320
2018-08-19T07:14:38.083Z,45472
2018-08-19T07:15:18.818Z,46496
2018-08-19T07:15:59.554Z,46336
2018-08-19T07:16:40.376Z,45888
2018-08-19T07:17:21.186Z,45728
2018-08-19T07:18:01.944Z,44192
2018-08-19T07:18:42.744Z,40640
2018-08-19T07:19:23.476Z,36032
2018-08-19T07:20:04.371Z,35712
2018-08-19T07:20:45.102Z,39744
2018-08-19T07:21:25.953Z,43328
2018-08-19T07:22:06.731Z,41280
2018-08-19T07:22:47.535Z,37216
2018-08-19T07:23:28.390Z,35392
2018-08-19T07:24:09.111Z,37024
2018-08-19T07:24:49.871Z,39456
2018-08-19T07:25:30.630Z,41088
2018-08-19T07:26:11.479Z,42560
2018-08-19T07:26:52.268Z,43520
2018-08-19T07:27:33.110Z,41376
2018-08-19T07:28:13.916Z,38656
2018-08-19T07:28:54.719Z,38720
2018-08-19T07:29:35.453Z,39392
2018-08-19T07:30:16.276Z,40160
2018-08-19T07:30:57.111Z,40576
2018-08-19T07:31:37.876Z,41376
2018-08-19T07:32:18.628Z,40672
2018-08-19T07:32:59.454Z,39680
2018-08-19T07:33:40.305Z,38112
2018-08-19T07:34:21.107Z,37536
2018-08-19T07:35:01.958Z,37408
2018-08-19T07:35:42.800Z,38304
2018-08-19T07:36:23.575Z,37984
2018-08-19T07:37:04.437Z,36960
2018-08-19T07:37:45.251Z,36736
2018-08-19T07:38:26.059Z,35744
2018-08-19T07:39:06.858Z,35392
2018-08-19T07:39:47.678Z,37440
2018-08-19T07:40:28.528Z,39968
2018-08-19T07:41:09.337Z,40864
2018-08-19T07:41:50.092Z,40672
2018-08-19T07:42:31.763Z,40992
2018-08-19T07:43:12.375Z,42240
2018-08-19T07:43:53.270Z,42528
2018-08-19T07:44:34.044Z,41888
2018-08-19T07:45:14.887Z,40224
2018-08-19T07:45:55.712Z,37792
2018-08-19T07:46:36.482Z,39200
2018-08-19T07:47:17.243Z,41312
2018-08-19T07:47:58.037Z,44960
2018-08-19T07:48:38.824Z,35552
2018-08-19T07:49:19.588Z,17856
2018-08-19T07:50:00.432Z,3868
2018-08-19T07:50:41.252Z,2288
2018-08-19T07:51:22.109Z,1944
2018-08-19T07:52:02.924Z,1780
2018-08-19T07:52:43.652Z,1672
2018-08-19T07:53:24.509Z,1592
2018-08-19T07:54:05.331Z,1524
2018-08-19T07:54:46.101Z,1472
2018-08-19T07:55:26.861Z,1420
2018-08-19T07:56:07.607Z,1376
2018-08-19T07:56:48.423Z,1336
2018-08-19T07:57:29.251Z,1300
2018-08-19T07:58:10.006Z,1260
2018-08-19T07:58:50.797Z,1232
2018-08-19T07:59:31.648Z,1204
2018-08-19T08:00:12.548Z,1176
2018-08-19T08:00:53.468Z,1152
2018-08-19T08:01:34.242Z,1128
2018-08-19T08:02:15.004Z,1104
2018-08-19T08:02:55.786Z,1084
2018-08-19T08:03:36.572Z,1060
2018-08-19T08:04:17.568Z,1040
2018-08-19T08:04:58.466Z,1020
2018-08-19T08:05:39.190Z,1004
2018-08-19T08:06:19.997Z,988
2018-08-19T08:07:00.785Z,972
2018-08-19T08:07:41.504Z,952
2018-08-19T08:08:22.217Z,936
2018-08-19T08:09:02.983Z,924
2018-08-19T08:09:43.806Z,908
2018-08-19T08:10:24.633Z,896
2018-08-19T08:11:05.467Z,888
2018-08-19T08:11:46.319Z,876
2018-08-19T08:12:27.131Z,860
2018-08-19T08:13:07.878Z,852
2018-08-19T08:13:49.454Z,840
2018-08-19T08:14:29.530Z,828
2018-08-19T08:15:10.309Z,824
2018-08-19T08:15:51.065Z,812
2018-08-19T08:16:31.856Z,800
2018-08-19T08:17:12.681Z,792
2018-08-19T08:17:54.247Z,784
2018-08-19T08:18:34.951Z,772
2018-08-19T08:19:15.712Z,764
2018-08-19T08:19:56.965Z,756
2018-08-19T08:20:37.694Z,748
2018-08-19T08:21:18.638Z,744
2018-08-19T08:21:59.363Z,732
2018-08-19T08:22:40.278Z,728
2018-08-19T08:23:21.194Z,716
2018-08-19T08:24:02.028Z,708
2018-08-19T08:24:42.907Z,700
2018-08-19T08:25:23.691Z,692
2018-08-19T08:26:04.514Z,688
2018-08-19T08:26:45.357Z,680
2018-08-19T08:27:26.183Z,672
2018-08-19T08:28:06.980Z,664
2018-08-19T08:28:47.777Z,660
2018-08-19T08:29:28.594Z,652
2018-08-19T08:30:09.558Z,652
2018-08-19T08:30:50.479Z,644
2018-08-19T08:31:31.300Z,636
2018-08-19T08:32:12.097Z,632
2018-08-19T08:32:52.927Z,624
2018-08-19T08:33:33.739Z,616
2018-08-19T08:34:14.500Z,612
2018-08-19T08:34:55.198Z,608
2018-08-19T08:35:35.944Z,600
2018-08-19T08:36:16.712Z,596
2018-08-19T08:36:57.541Z,592
2018-08-19T08:37:38.376Z,584
2018-08-19T08:38:19.099Z,580
2018-08-19T08:39:00.144Z,576
2018-08-19T08:39:40.877Z,568
2018-08-19T08:40:21.678Z,568
2018-08-19T08:41:02.558Z,560
2018-08-19T08:41:43.387Z,560
2018-08-19T08:42:24.162Z,556
2018-08-19T08:43:05.029Z,528
2018-08-19T08:43:45.802Z,552
2018-08-19T08:44:26.615Z,548
2018-08-19T08:45:07.300Z,544
2018-08-19T08:45:48.146Z,540
2018-08-19T08:46:28.906Z,540
2018-08-19T08:47:09.815Z,532
2018-08-19T08:47:50.709Z,532
2018-08-19T08:48:31.539Z,528
2018-08-19T08:49:12.277Z,524
2018-08-19T08:49:53.072Z,520
2018-08-19T08:50:33.914Z,516
2018-08-19T08:51:14.648Z,516
2018-08-19T08:51:55.493Z,512
2018-08-19T08:52:36.271Z,512
2018-08-19T08:53:17.104Z,508
2018-08-19T08:53:58.176Z,504
2018-08-19T08:54:39.107Z,504
2018-08-19T08:55:19.999Z,500
2018-08-19T08:56:00.794Z,500
2018-08-19T08:56:41.547Z,496
2018-08-19T08:57:22.348Z,496
2018-08-19T08:58:03.164Z,492
2018-08-19T08:58:44.029Z,500
2018-08-19T08:59:24.820Z,492
2018-08-19T09:00:05.619Z,488
2018-08-19T09:00:46.485Z,488
2018-08-19T09:01:27.802Z,488
2018-08-19T09:02:08.691Z,488
2018-08-19T09:02:49.466Z,484
2018-08-19T09:03:30.205Z,480
2018-08-19T09:04:11.059Z,480
2018-08-19T09:04:51.805Z,476
2018-08-19T09:05:32.559Z,472
2018-08-19T09:06:13.349Z,472
2018-08-19T09:06:54.166Z,468
2018-08-19T09:07:35.227Z,464
2018-08-19T09:08:15.976Z,460
2018-08-19T09:08:56.824Z,456
2018-08-19T09:09:37.679Z,456
2018-08-19T09:10:18.582Z,456
2018-08-19T09:10:59.318Z,452
2018-08-19T09:11:40.063Z,452
2018-08-19T09:12:20.804Z,448
2018-08-19T09:13:01.582Z,448
2018-08-19T09:13:42.490Z,444
2018-08-19T09:14:23.327Z,444
2018-08-19T09:15:04.111Z,436
2018-08-19T09:15:44.888Z,440
2018-08-19T09:16:25.728Z,440
2018-08-19T09:17:06.559Z,436
2018-08-19T09:17:47.352Z,432
2018-08-19T09:18:28.154Z,432
2018-08-19T09:19:08.894Z,432
2018-08-19T09:19:49.679Z,428
2018-08-19T09:20:30.443Z,428
2018-08-19T09:21:11.162Z,428
2018-08-19T09:21:51.974Z,432
2018-08-19T09:22:32.787Z,428
2018-08-19T09:23:13.776Z,424
2018-08-19T09:23:54.398Z,424
2018-08-19T09:24:35.185Z,424
2018-08-19T09:25:16.022Z,428
2018-08-19T09:25:56.797Z,424
2018-08-19T09:26:37.538Z,424
2018-08-19T09:27:18.282Z,424
2018-08-19T09:27:59.038Z,424
2018-08-19T09:28:39.911Z,424
2018-08-19T09:29:20.711Z,424
2018-08-19T09:30:01.532Z,424
2018-08-19T09:30:42.289Z,420
2018-08-19T09:31:23.026Z,424
2018-08-19T09:32:03.761Z,424
2018-08-19T09:32:44.613Z,424
2018-08-19T09:33:25.421Z,424
2018-08-19T09:34:06.183Z,420
2018-08-19T09:34:47.032Z,424
2018-08-19T09:35:27.892Z,420
2018-08-19T09:36:08.771Z,424
2018-08-19T09:36:49.624Z,420
2018-08-19T09:37:30.341Z,424
2018-08-19T09:38:11.193Z,424
2018-08-19T09:38:52.014Z,424
2018-08-19T09:39:32.784Z,424
2018-08-19T09:40:13.538Z,420
2018-08-19T09:40:54.352Z,424
2018-08-19T09:41:35.148Z,424
2018-08-19T09:42:15.943Z,424
2018-08-19T09:42:56.713Z,424
2018-08-19T09:43:37.558Z,424
2018-08-19T09:44:18.416Z,424
2018-08-19T09:44:59.231Z,424
2018-08-19T09:45:40.016Z,424
2018-08-19T09:46:20.794Z,428
2018-08-19T09:47:01.602Z,428
2018-08-19T09:47:42.566Z,428
2018-08-19T09:48:23.699Z,428
2018-08-19T09:49:04.543Z,428
2018-08-19T09:49:45.371Z,428
2018-08-19T09:50:26.141Z,428
2018-08-19T09:51:06.987Z,424
2018-08-19T09:51:47.918Z,424
2018-08-19T09:52:28.731Z,436
2018-08-19T09:53:09.488Z,436
2018-08-19T09:53:50.247Z,436
2018-08-19T09:54:31.130Z,436
2018-08-19T09:55:12.006Z,436
2018-08-19T09:55:52.862Z,436
2018-08-19T09:56:33.689Z,436
2018-08-19T09:57:14.448Z,436
2018-08-19T09:57:55.247Z,436
2018-08-19T09:58:36.028Z,440
2018-08-19T09:59:16.997Z,436
2018-08-19T09:59:57.793Z,440
2018-08-19T10:00:38.594Z,436
2018-08-19T10:01:19.592Z,440
2018-08-19T10:02:00.452Z,436
2018-08-19T10:02:41.282Z,440
2018-08-19T10:03:22.056Z,440
2018-08-19T10:04:02.825Z,444
2018-08-19T10:04:43.687Z,440
2018-08-19T10:05:24.532Z,444
2018-08-19T10:06:05.342Z,444
2018-08-19T10:06:46.187Z,448
2018-08-19T10:07:26.900Z,448
2018-08-19T10:08:07.680Z,444
2018-08-19T10:08:48.537Z,448
2018-08-19T10:09:29.247Z,448
2018-08-19T10:10:10.005Z,444
2018-08-19T10:10:50.752Z,452
2018-08-19T10:11:31.560Z,452
2018-08-19T10:12:12.440Z,448
2018-08-19T10:12:53.228Z,452
2018-08-19T10:13:34.040Z,452
2018-08-19T10:14:14.859Z,452
2018-08-19T10:14:55.631Z,452
2018-08-19T10:15:36.507Z,456
2018-08-19T10:16:17.254Z,456
2018-08-19T10:16:58.086Z,456
2018-08-19T10:17:38.963Z,460
2018-08-19T10:18:19.718Z,456
2018-08-19T10:19:00.437Z,456
2018-08-19T10:19:41.171Z,456
2018-08-19T10:20:21.973Z,460
2018-08-19T10:21:02.841Z,460
2018-08-19T10:21:44.020Z,468
2018-08-19T10:22:24.797Z,464
2018-08-19T10:23:05.546Z,460
2018-08-19T10:23:46.252Z,456
2018-08-19T10:24:27.007Z,456
2018-08-19T10:25:07.879Z,468
2018-08-19T10:25:48.632Z,464
2018-08-19T10:26:29.405Z,464
2018-08-19T10:27:10.195Z,460
2018-08-19T10:27:51.025Z,464
2018-08-19T10:28:31.876Z,464
2018-08-19T10:29:12.640Z,468
2018-08-19T10:29:53.389Z,464
2018-08-19T10:30:34.215Z,464
2018-08-19T10:31:15.066Z,468
2018-08-19T10:31:55.729Z,468
2018-08-19T10:32:36.493Z,468
2018-08-19T10:33:17.221Z,468
2018-08-19T10:33:58.102Z,476
2018-08-19T10:34:38.857Z,484
2018-08-19T10:35:19.593Z,472
2018-08-19T10:36:00.394Z,468
2018-08-19T10:36:41.205Z,476
2018-08-19T10:37:22.201Z,472
2018-08-19T10:38:02.948Z,472
2018-08-19T10:38:43.706Z,472
2018-08-19T10:39:24.523Z,468
2018-08-19T10:40:05.368Z,472
2018-08-19T10:40:46.229Z,472
2018-08-19T10:41:27.144Z,476
2018-08-19T10:42:07.933Z,480
2018-08-19T10:42:48.667Z,476
2018-08-19T10:43:29.514Z,480
2018-08-19T10:44:10.300Z,480
2018-08-19T10:44:51.015Z,476
2018-08-19T10:45:31.774Z,476
2018-08-19T10:46:12.665Z,476
2018-08-19T10:46:53.460Z,480
2018-08-19T10:47:34.179Z,480
2018-08-19T10:48:14.907Z,480
2018-08-19T10:48:55.739Z,480
2018-08-19T10:49:36.520Z,480
2018-08-19T10:50:17.375Z,480
2018-08-19T10:50:58.099Z,480
2018-08-19T10:51:38.850Z,480
2018-08-19T10:52:19.698Z,480
2018-08-19T10:53:00.506Z,484
2018-08-19T10:53:41.192Z,484
2018-08-19T10:54:21.972Z,484
2018-08-19T10:55:02.871Z,480
2018-08-19T10:55:43.673Z,484
2018-08-19T10:56:24.495Z,484
2018-08-19T10:57:05.287Z,480
2018-08-19T10:57:46.142Z,480
2018-08-19T10:58:26.939Z,484
2018-08-19T10:59:07.635Z,488
2018-08-19T10:59:48.505Z,488
2018-08-19T11:00:29.224Z,488
2018-08-19T11:01:09.976Z,484
2018-08-19T11:01:50.781Z,488
2018-08-19T11:02:31.666Z,484
2018-08-19T11:03:12.504Z,488
2018-08-19T11:03:53.360Z,488
2018-08-19T11:04:34.171Z,480
2018-08-19T11:05:14.958Z,492
2018-08-19T11:05:55.723Z,488
2018-08-19T11:06:36.677Z,488
2018-08-19T11:07:17.540Z,488
2018-08-19T11:07:58.359Z,492
2018-08-19T11:08:39.127Z,488
2018-08-19T11:09:19.955Z,488
2018-08-19T11:10:00.764Z,488
2018-08-19T11:10:41.496Z,496
2018-08-19T11:11:22.239Z,488
2018-08-19T11:12:02.976Z,492
2018-08-19T11:12:43.821Z,492
2018-08-19T11:13:24.741Z,492
2018-08-19T11:14:05.544Z,496
2018-08-19T11:14:46.329Z,492
2018-08-19T11:15:27.314Z,492
2018-08-19T11:16:08.038Z,492
2018-08-19T11:16:48.834Z,492
2018-08-19T11:19:25.135Z,496
2018-08-19T11:20:05.864Z,496
2018-08-19T11:20:46.628Z,496
2018-08-19T11:21:27.372Z,496
2018-08-19T11:22:08.246Z,496
2018-08-19T11:22:49.082Z,496
2018-08-19T11:23:29.994Z,496
2018-08-19T11:24:11.052Z,500
2018-08-19T11:24:51.565Z,500
2018-08-19T11:25:32.275Z,500
2018-08-19T11:26:13.081Z,496
2018-08-19T11:26:53.924Z,504
2018-08-19T11:27:34.714Z,496
2018-08-19T11:28:15.469Z,500
2018-08-19T11:28:56.208Z,500
2018-08-19T11:29:37.008Z,500
2018-08-19T11:30:17.862Z,500
2018-08-19T11:30:58.679Z,504
2018-08-19T11:31:39.469Z,500
2018-08-19T11:32:20.231Z,504
2018-08-19T11:33:01.063Z,504
2018-08-19T11:33:41.922Z,492
2018-08-19T11:34:22.797Z,504
2018-08-19T11:35:03.562Z,504
2018-08-19T11:35:44.348Z,504
2018-08-19T11:36:25.565Z,504
2018-08-19T11:37:06.441Z,500
2018-08-19T11:37:47.202Z,504
2018-08-19T11:38:27.968Z,500
2018-08-19T11:39:08.823Z,504
2018-08-19T11:39:49.688Z,504
2018-08-19T11:40:30.516Z,504
2018-08-19T11:41:11.390Z,504
2018-08-19T11:41:52.157Z,504
2018-08-19T11:42:32.897Z,500
2018-08-19T11:43:13.731Z,504
2018-08-19T11:43:54.501Z,504
2018-08-19T11:44:35.428Z,504
2018-08-19T11:45:16.288Z,504
2018-08-19T11:45:57.015Z,504
2018-08-19T11:46:37.859Z,504
2018-08-19T11:47:18.657Z,508
2018-08-19T11:47:59.440Z,504
2018-08-19T11:48:40.313Z,504
2018-08-19T11:49:21.089Z,504
2018-08-19T11:50:01.904Z,508
2018-08-19T11:50:42.660Z,508
2018-08-19T11:51:23.411Z,504
2018-08-19T11:52:04.188Z,504
2018-08-19T11:52:44.981Z,504
2018-08-19T11:53:25.776Z,504
2018-08-19T11:54:06.902Z,504
2018-08-19T11:54:47.461Z,504
2018-08-19T11:55:28.437Z,504
2018-08-19T11:56:09.198Z,504
2018-08-19T11:56:49.981Z,504
2018-08-19T11:57:30.771Z,504
2018-08-19T11:58:11.529Z,504
2018-08-19T11:58:52.284Z,504
2018-08-19T11:59:33.188Z,508
2018-08-19T12:00:14.370Z,508
2018-08-19T12:00:55.351Z,504
2018-08-19T12:01:36.140Z,504
2018-08-19T12:02:17.002Z,504
2018-08-19T12:02:57.827Z,504
2018-08-19T12:03:38.590Z,508
2018-08-19T12:04:19.366Z,508
2018-08-19T12:05:00.096Z,508
2018-08-19T12:05:40.882Z,504
2018-08-19T12:06:21.705Z,504
2018-08-19T12:07:02.534Z,504
2018-08-19T12:07:43.504Z,504
2018-08-19T12:08:24.262Z,504
2018-08-19T12:09:04.998Z,504
2018-08-19T12:09:46.000Z,504
2018-08-19T12:10:26.745Z,504
2018-08-19T12:11:07.425Z,504
2018-08-19T12:11:48.219Z,508
2018-08-19T12:12:29.090Z,508
2018-08-19T12:13:09.968Z,504
2018-08-19T12:13:50.731Z,504
2018-08-19T12:14:31.479Z,504
2018-08-19T12:15:12.211Z,504
2018-08-19T12:15:52.988Z,504
2018-08-19T12:16:33.893Z,504
2018-08-19T12:17:14.793Z,504
2018-08-19T12:17:55.652Z,504
2018-08-19T12:18:36.427Z,500
2018-08-19T12:19:17.163Z,500
2018-08-19T12:19:57.996Z,504
2018-08-19T12:20:38.739Z,504
2018-08-19T12:21:19.508Z,504
2018-08-19T12:22:00.255Z,500
2018-08-19T12:22:41.093Z,504
2018-08-19T12:23:21.920Z,504
2018-08-19T12:24:02.663Z,504
2018-08-19T12:24:43.439Z,504
2018-08-19T12:25:24.274Z,500
2018-08-19T12:26:05.122Z,504
2018-08-19T12:26:46.999Z,500
2018-08-19T12:27:27.868Z,504
2018-08-19T12:28:08.629Z,504
2018-08-19T12:28:49.489Z,504
2018-08-19T12:29:30.230Z,504
2018-08-19T12:30:11.276Z,500
2018-08-19T12:30:52.125Z,500
2018-08-19T12:31:32.898Z,504
2018-08-19T12:32:13.853Z,500
2018-08-19T12:32:54.690Z,500
2018-08-19T12:33:35.523Z,500
2018-08-19T12:34:16.261Z,500
2018-08-19T12:34:57.063Z,496
2018-08-19T12:35:37.889Z,496
2018-08-19T12:36:18.728Z,500
2018-08-19T12:36:59.527Z,500
2018-08-19T12:37:40.378Z,496
2018-08-19T12:38:21.052Z,496
2018-08-19T12:39:01.890Z,496
2018-08-19T12:39:42.909Z,496
2018-08-19T12:40:23.688Z,492
2018-08-19T12:41:04.466Z,492
2018-08-19T12:41:45.246Z,492
2018-08-19T12:42:26.089Z,496
2018-08-19T12:43:06.898Z,496
2018-08-19T12:43:47.789Z,492
2018-08-19T12:44:28.516Z,492
2018-08-19T12:45:09.261Z,492
2018-08-19T12:45:50.049Z,496
2018-08-19T12:46:30.845Z,492
2018-08-19T12:47:11.649Z,492
2018-08-19T12:47:52.395Z,488
2018-08-19T12:48:33.148Z,492
2018-08-19T12:49:14.029Z,488